Time;durP1;ratioP1;P1;durP2;ratioP2;P2;SDS_P1;SDS_P2;PMS_P1;PMS_P2;Temp;Humidity;BMP_temperature;BMP_pressure;BME280_temperature;BME280_humidity;BME280_pressure;Samples;Min_cycle;Max_cycle;Signal;HPM_P1;HPM_P2
2021/11/28 00:00:42;;;;;;;20.53;11.87;;;;;;;3.15;91.12;96074.84;4885978;29;20653;-86
2021/11/28 00:03:10;;;;;;;19.40;12.03;;;;;;;3.14;90.58;96075.75;4887023;29;20705;-86
2021/11/28 00:05:39;;;;;;;20.40;12.10;;;;;;;3.13;90.92;96064.66;4897822;29;20737;-86
2021/11/28 00:08:17;;;;;;;20.57;11.80;;;;;;;3.12;90.95;96068.13;4890836;29;20638;-86
2021/11/28 00:10:54;;;;;;;19.50;11.97;;;;;;;3.14;91.19;96060.31;4902522;29;20742;-86
2021/11/28 00:13:33;;;;;;;21.80;12.37;;;;;;;3.17;90.77;96054.94;4891522;29;20628;-86
2021/11/28 00:16:01;;;;;;;18.70;11.77;;;;;;;3.16;90.88;96051.56;4900895;29;20738;-86
2021/11/28 00:18:31;;;;;;;18.70;11.40;;;;;;;3.20;90.53;96049.56;4916628;29;20657;-86
2021/11/28 00:20:59;;;;;;;19.07;11.53;;;;;;;3.22;90.64;96058.00;4891168;29;20657;-86
2021/11/28 00:23:29;;;;;;;19.60;11.40;;;;;;;3.21;90.88;96048.66;4908980;29;21018;-86
2021/11/28 00:25:57;;;;;;;18.63;11.30;;;;;;;3.23;91.32;96047.59;4887085;29;20730;-86
2021/11/28 00:28:26;;;;;;;16.70;10.73;;;;;;;3.22;90.90;96050.28;4891650;29;20633;-86
2021/11/28 00:30:54;;;;;;;23.40;13.43;;;;;;;3.21;90.90;96048.66;4898016;29;20643;-87
2021/11/28 00:33:23;;;;;;;22.93;13.80;;;;;;;3.21;91.39;96046.06;4891783;29;20649;-86
2021/11/28 00:35:51;;;;;;;22.17;15.10;;;;;;;3.24;91.54;96051.00;4903575;29;20646;-86
2021/11/28 00:38:22;;;;;;;23.43;14.70;;;;;;;3.26;91.66;96051.69;4903956;29;20652;-86
2021/11/28 00:40:51;;;;;;;20.40;13.43;;;;;;;3.26;91.18;96057.66;4890060;29;20650;-86
2021/11/28 00:43:19;;;;;;;20.93;12.20;;;;;;;3.26;91.17;96059.44;4907239;29;20651;-86
2021/11/28 00:45:48;;;;;;;19.17;11.83;;;;;;;3.29;91.64;96057.44;4901208;29;20754;-86
2021/11/28 00:48:18;;;;;;;20.10;12.50;;;;;;;3.29;90.86;96055.72;4902495;29;21228;-86
2021/11/28 00:50:47;;;;;;;18.60;11.33;;;;;;;3.30;90.34;96053.94;4913133;29;21197;-86
2021/11/28 00:53:19;;;;;;;18.90;11.87;;;;;;;3.31;90.91;96060.75;4912385;29;20638;-86
2021/11/28 00:55:47;;;;;;;18.53;12.10;;;;;;;3.31;91.33;96058.97;4884722;29;20666;-87
2021/11/28 00:58:17;;;;;;;16.43;11.23;;;;;;;3.34;90.71;96069.06;4901630;29;20661;-87
2021/11/28 01:00:45;;;;;;;16.63;11.90;;;;;;;3.37;90.60;96071.41;4888818;29;20678;-86
2021/11/28 01:03:14;;;;;;;19.20;11.63;;;;;;;3.40;91.43;96065.22;4904749;29;21236;-86
2021/11/28 01:05:43;;;;;;;16.27;11.50;;;;;;;3.42;90.83;96061.59;4903386;29;20698;-86
2021/11/28 01:08:16;;;;;;;18.23;12.03;;;;;;;3.41;90.19;96064.28;4905435;29;20734;-87
2021/11/28 01:10:45;;;;;;;17.70;11.23;;;;;;;3.42;91.27;96055.63;4898533;29;21005;-86
2021/11/28 01:13:13;;;;;;;16.37;11.50;;;;;;;3.41;91.31;96059.97;4883857;29;20690;-87
2021/11/28 01:15:43;;;;;;;17.17;11.47;;;;;;;3.41;90.46;96053.97;4883448;29;21014;-86
2021/11/28 01:18:11;;;;;;;16.70;11.40;;;;;;;3.39;90.46;96064.38;4893783;29;20646;-86
2021/11/28 01:20:40;;;;;;;17.27;12.00;;;;;;;3.39;91.09;96064.38;4886333;29;20658;-86
2021/11/28 01:23:08;;;;;;;22.03;12.30;;;;;;;3.38;90.68;96077.38;4881476;29;20647;-86
2021/11/28 01:25:37;;;;;;;19.57;12.60;;;;;;;3.37;90.36;96071.41;4886664;29;20861;-86
2021/11/28 01:28:05;;;;;;;16.67;11.17;;;;;;;3.37;90.79;96092.03;4886152;29;21293;-86
2021/11/28 01:30:33;;;;;;;16.00;10.60;;;;;;;3.38;90.53;96082.53;4887927;29;20674;-86
2021/11/28 01:33:03;;;;;;;16.17;10.87;;;;;;;3.41;90.78;96078.00;4892448;29;20702;-87
2021/11/28 01:35:31;;;;;;;15.00;10.20;;;;;;;3.41;91.17;96083.16;4888462;29;21330;-88
2021/11/28 01:38:00;;;;;;;17.30;10.70;;;;;;;3.42;90.90;96081.38;4906750;29;20665;-86
2021/11/28 01:40:28;;;;;;;16.80;10.67;;;;;;;3.43;91.03;96090.78;4895730;29;20695;-86
2021/11/28 01:43:01;;;;;;;14.70;10.20;;;;;;;3.47;90.87;96097.31;4898769;29;20669;-87
2021/11/28 01:45:32;;;;;;;17.37;11.17;;;;;;;3.47;91.02;96094.75;4888393;29;20726;-86
2021/11/28 01:48:04;;;;;;;15.67;10.80;;;;;;;3.49;91.59;96091.13;4893837;29;20637;-86
2021/11/28 01:50:34;;;;;;;15.10;10.40;;;;;;;3.47;91.11;96090.44;4908430;29;20701;-86
2021/11/28 01:53:06;;;;;;;18.30;10.57;;;;;;;3.47;91.03;96093.00;4908422;29;20647;-86
2021/11/28 01:55:35;;;;;;;14.03;10.57;;;;;;;3.48;91.32;96104.13;4901150;29;21218;-87
2021/11/28 01:58:09;;;;;;;16.13;10.10;;;;;;;3.49;90.99;96106.59;4893239;29;20685;-86
2021/11/28 02:00:40;;;;;;;14.67;9.60;;;;;;;3.51;90.80;96106.47;4894403;29;20664;-87
2021/11/28 02:03:11;;;;;;;16.27;10.63;;;;;;;3.48;91.28;96101.53;4900874;29;20626;-87
2021/11/28 02:05:43;;;;;;;18.60;10.57;;;;;;;3.42;90.82;96089.94;4900339;29;20693;-86
2021/11/28 02:08:11;;;;;;;16.57;11.30;;;;;;;3.43;91.79;96093.34;4889113;29;21241;-87
2021/11/28 02:10:40;;;;;;;16.67;10.53;;;;;;;3.44;91.48;96093.22;4907247;29;20622;-85
2021/11/28 02:13:08;;;;;;;14.87;9.50;;;;;;;3.42;91.56;96094.25;4889550;29;20734;-86
2021/11/28 02:15:36;;;;;;;14.97;10.40;;;;;;;3.44;91.76;96098.38;4885057;29;20694;-87
2021/11/28 02:18:05;;;;;;;16.27;9.57;;;;;;;3.43;91.92;96095.91;4907509;29;21074;-86
2021/11/28 02:20:35;;;;;;;13.00;9.73;;;;;;;3.46;91.39;96096.50;4908735;29;20639;-86
2021/11/28 02:23:05;;;;;;;14.37;9.70;;;;;;;3.46;91.25;96093.94;4890814;29;20753;-87
2021/11/28 02:25:33;;;;;;;16.60;10.10;;;;;;;3.45;91.01;96096.63;4892507;29;20682;-87
2021/11/28 02:28:02;;;;;;;13.40;9.13;;;;;;;3.44;91.33;96093.22;4886283;29;20634;-86
2021/11/28 02:30:31;;;;;;;12.70;8.73;;;;;;;3.44;91.66;96089.81;4889480;29;20651;-86
2021/11/28 02:33:00;;;;;;;13.37;9.63;;;;;;;3.45;91.36;96094.03;4906986;29;21195;-86
2021/11/28 02:35:31;;;;;;;13.27;9.40;;;;;;;3.45;91.30;96094.84;4904725;29;20635;-86
2021/11/28 02:38:00;;;;;;;13.50;9.33;;;;;;;3.44;91.57;96085.50;4900732;29;20996;-86
2021/11/28 02:40:30;;;;;;;13.17;9.47;;;;;;;3.45;91.56;96091.47;4892018;29;20744;-86
2021/11/28 02:42:58;;;;;;;12.03;8.70;;;;;;;3.44;91.02;96088.09;4883236;29;21000;-86
2021/11/28 02:45:29;;;;;;;13.37;9.80;;;;;;;3.46;92.02;96091.34;4881228;29;20652;-87
2021/11/28 02:48:00;;;;;;;14.70;8.93;;;;;;;3.45;91.03;96084.56;4905502;29;20745;-87
2021/11/28 02:50:28;;;;;;;14.83;9.90;;;;;;;3.44;91.21;96082.94;4898643;29;20626;-86
2021/11/28 02:52:59;;;;;;;13.57;9.90;;;;;;;3.44;90.90;96087.25;4882915;29;20627;-87
2021/11/28 02:55:30;;;;;;;14.20;9.80;;;;;;;3.45;90.90;96083.75;4887347;29;20622;-87
2021/11/28 02:57:59;;;;;;;13.20;8.70;;;;;;;3.42;91.65;96087.34;4903064;29;20652;-85
2021/11/28 03:00:30;;;;;;;14.10;8.90;;;;;;;3.47;90.61;96084.44;4900573;29;20734;-86
2021/11/28 03:02:59;;;;;;;12.70;8.43;;;;;;;3.48;91.11;96089.47;4887847;29;20654;-86
2021/11/28 03:05:29;;;;;;;14.40;8.20;;;;;;;3.43;91.67;96083.84;4899854;29;20659;-86
2021/11/28 03:07:59;;;;;;;11.97;9.10;;;;;;;3.46;91.83;96086.19;4886648;29;20713;-86
2021/11/28 03:10:37;;;;;;;13.60;8.80;;;;;;;3.48;91.74;96086.91;4887674;29;20635;-86
2021/11/28 03:13:07;;;;;;;13.20;8.37;;;;;;;3.50;91.77;96090.22;4903858;29;20722;-87
2021/11/28 03:15:36;;;;;;;16.17;9.77;;;;;;;3.48;91.65;96083.53;4886878;29;20627;-86
2021/11/28 03:18:11;;;;;;;19.27;10.20;;;;;;;3.48;91.94;96088.66;4891949;29;20676;-86
2021/11/28 03:20:40;;;;;;;13.63;9.73;;;;;;;3.49;92.03;96088.56;4888768;29;20695;-86
2021/11/28 03:23:09;;;;;;;13.03;9.30;;;;;;;3.51;91.63;96088.44;4889225;29;20677;-86
2021/11/28 03:25:39;;;;;;;12.97;9.30;;;;;;;3.49;91.69;96087.75;4887685;29;20658;-86
2021/11/28 03:28:12;;;;;;;13.00;8.80;;;;;;;3.51;91.50;96078.94;4887984;29;20721;-86
2021/11/28 03:30:42;;;;;;;13.70;8.93;;;;;;;3.50;91.84;96082.47;4888289;29;20654;-87
2021/11/28 03:33:34;;;;;;;12.47;8.10;;;;;;;3.50;92.23;96079.91;4872844;29;20643;-86
2021/11/28 03:36:25;;;;;;;12.13;7.97;;;;;;;3.43;91.19;96068.41;4903104;29;20655;-86
2021/11/28 03:38:58;;;;;;;13.27;8.90;;;;;;;3.44;92.49;96075.19;4887485;29;20737;-86
2021/11/28 03:41:29;;;;;;;11.80;8.50;;;;;;;3.47;91.17;96072.41;4892399;29;20638;-87
2021/11/28 03:43:59;;;;;;;12.00;8.33;;;;;;;3.48;91.71;96073.22;4896081;29;20770;-86
2021/11/28 03:46:28;;;;;;;13.63;8.70;;;;;;;3.50;92.70;96066.19;4894687;29;21272;-86
2021/11/28 03:49:01;;;;;;;11.77;7.77;;;;;;;3.52;92.78;96061.72;4886978;29;21010;-87
2021/11/28 03:51:31;;;;;;;11.67;7.80;;;;;;;3.53;92.05;96076.25;4890228;29;20645;-87
2021/11/28 03:53:59;;;;;;;12.53;7.83;;;;;;;3.55;91.78;96062.34;4889213;29;20647;-86
2021/11/28 03:56:30;;;;;;;10.67;7.50;;;;;;;3.54;91.96;96073.56;4906566;29;21090;-86
2021/11/28 03:59:00;;;;;;;10.20;7.70;;;;;;;3.54;91.36;96068.44;4890375;29;20649;-86
2021/11/28 04:01:28;;;;;;;14.10;8.77;;;;;;;3.55;91.44;96070.06;4888061;29;20643;-86
2021/11/28 04:03:57;;;;;;;10.50;7.63;;;;;;;3.55;91.92;96070.06;4888391;29;20630;-87
2021/11/28 04:06:47;;;;;;;10.87;7.70;;;;;;;3.54;92.13;96073.56;4919718;29;20674;-86
2021/11/28 04:09:16;;;;;;;10.83;7.67;;;;;;;3.55;92.52;96072.66;4894244;29;20638;-86
2021/11/28 04:11:46;;;;;;;9.73;7.40;;;;;;;3.56;91.88;96070.88;4901873;29;20642;-87
2021/11/28 04:14:16;;;;;;;11.13;7.70;;;;;;;3.59;90.95;96066.31;4887676;29;20635;-87
2021/11/28 04:16:44;;;;;;;10.47;7.47;;;;;;;3.59;91.81;96056.03;4887047;29;20694;-86
2021/11/28 04:19:14;;;;;;;12.00;6.60;;;;;;;3.58;92.16;96059.56;4899617;29;20686;-87
2021/11/28 04:21:46;;;;;;;11.70;7.30;;;;;;;3.57;91.64;96068.19;4888391;29;20736;-86
2021/11/28 04:24:17;;;;;;;10.40;7.50;;;;;;;3.58;91.97;96069.00;4884299;29;20643;-86
2021/11/28 04:26:46;;;;;;;11.30;7.40;;;;;;;3.60;91.87;96062.00;4905729;29;21082;-86
2021/11/28 04:29:17;;;;;;;13.63;8.03;;;;;;;3.61;92.46;96059.31;4881618;29;21431;-86
2021/11/28 04:31:47;;;;;;;10.00;6.70;;;;;;;3.63;91.95;96062.59;4888027;29;20643;-85
2021/11/28 04:34:16;;;;;;;10.20;6.90;;;;;;;3.62;92.34;96060.94;4903842;29;20636;-85
2021/11/28 04:36:44;;;;;;;9.67;6.83;;;;;;;3.63;91.98;96060.03;4914723;29;20689;-86
2021/11/28 04:39:13;;;;;;;10.53;7.00;;;;;;;3.61;91.75;96056.75;4893313;29;21222;-86
2021/11/28 04:41:41;;;;;;;10.00;6.90;;;;;;;3.59;92.21;96060.34;4902045;29;20633;-86
2021/11/28 04:44:11;;;;;;;8.53;6.80;;;;;;;3.66;92.91;96061.56;4892014;29;20646;-86
2021/11/28 04:46:40;;;;;;;10.00;6.70;;;;;;;3.65;92.11;96059.91;4891528;29;21199;-86
2021/11/28 04:49:09;;;;;;;10.83;6.50;;;;;;;3.66;92.12;96059.78;4884675;29;20626;-86
2021/11/28 04:51:37;;;;;;;9.93;7.20;;;;;;;3.69;91.75;96059.56;4905041;29;21039;-86
2021/11/28 04:54:08;;;;;;;9.87;7.20;;;;;;;3.72;92.46;96061.09;4901321;29;20645;-86
2021/11/28 04:56:36;;;;;;;8.17;6.23;;;;;;;3.72;92.00;96057.56;4919931;29;21261;-86
2021/11/28 04:59:05;;;;;;;11.20;6.93;;;;;;;3.76;92.02;96063.34;4898763;29;21228;-86
2021/11/28 05:01:41;;;;;;;11.40;7.60;;;;;;;3.80;91.75;96054.44;4902168;29;20642;-86
2021/11/28 05:04:22;;;;;;;9.73;6.60;;;;;;;3.80;91.82;96064.75;4906467;29;20643;-85
2021/11/28 05:07:09;;;;;;;9.03;6.00;;;;;;;3.79;91.94;96068.28;4924182;29;21430;-86
2021/11/28 05:09:40;;;;;;;9.67;7.40;;;;;;;3.80;91.51;96064.75;4887984;29;20674;-86
2021/11/28 05:12:10;;;;;;;9.40;6.23;;;;;;;3.82;91.55;96068.84;4906787;29;20653;-86
2021/11/28 05:14:40;;;;;;;9.00;6.50;;;;;;;3.82;91.08;96055.16;4895727;29;20643;-86
2021/11/28 05:17:10;;;;;;;10.13;7.27;;;;;;;3.80;91.13;96064.75;4884491;29;20634;-86
2021/11/28 05:19:48;;;;;;;10.33;6.90;;;;;;;3.80;92.40;96065.59;4905999;29;20645;-86
2021/11/28 05:22:25;;;;;;;13.10;6.83;;;;;;;3.80;92.00;96054.44;4887698;29;20647;-86
2021/11/28 05:24:56;;;;;;;11.33;7.00;;;;;;;3.82;91.36;96055.97;4907242;29;20675;-86
2021/11/28 05:27:25;;;;;;;8.67;6.40;;;;;;;3.81;91.84;96054.31;4890732;29;20654;-86
2021/11/28 05:29:54;;;;;;;10.07;6.87;;;;;;;3.83;92.46;96055.03;4907674;29;20652;-86
2021/11/28 05:32:24;;;;;;;9.40;6.10;;;;;;;3.86;92.05;96059.13;4893770;29;21324;-87
2021/11/28 05:35:11;;;;;;;11.03;6.47;;;;;;;3.86;92.03;96065.13;4904705;29;20693;-86
2021/11/28 05:38:00;;;;;;;8.17;5.97;;;;;;;3.89;91.50;96066.63;4907014;29;20702;-87
2021/11/28 05:40:29;;;;;;;7.90;6.10;;;;;;;3.88;90.69;96063.25;4910123;29;21185;-86
2021/11/28 05:42:58;;;;;;;8.40;6.60;;;;;;;3.90;92.09;96063.13;4893735;29;20637;-87
2021/11/28 05:45:27;;;;;;;9.87;6.50;;;;;;;3.91;91.79;96073.34;4889144;29;20641;-87
2021/11/28 05:48:06;;;;;;;7.90;5.87;;;;;;;3.93;91.65;96065.47;4907387;29;20635;-86
2021/11/28 05:51:05;;;;;;;9.00;6.40;;;;;;;3.94;92.41;96082.56;4897817;29;20638;-87
2021/11/28 05:53:36;;;;;;;8.37;6.20;;;;;;;3.93;90.67;96075.78;4910038;29;20635;-87
2021/11/28 05:56:05;;;;;;;6.73;6.03;;;;;;;3.91;91.46;96075.91;4903300;29;20649;-86
2021/11/28 05:58:34;;;;;;;9.30;6.30;;;;;;;3.92;92.35;96087.84;4903069;29;20646;-87
2021/11/28 06:01:03;;;;;;;7.97;6.23;;;;;;;3.94;91.46;96083.41;4906203;29;20641;-86
2021/11/28 06:03:33;;;;;;;9.07;6.43;;;;;;;3.93;91.29;96088.69;4913032;29;20655;-87
2021/11/28 06:06:04;;;;;;;8.33;5.80;;;;;;;4.00;91.61;96087.28;4906521;29;20679;-86
2021/11/28 06:08:59;;;;;;;7.60;6.27;;;;;;;3.99;90.97;96085.66;4903734;29;20671;-87
2021/11/28 06:11:27;;;;;;;7.50;6.37;;;;;;;3.96;90.92;96088.47;4891871;29;20639;-86
2021/11/28 06:13:55;;;;;;;8.13;5.93;;;;;;;3.96;91.08;96094.44;4902912;29;20750;-86
2021/11/28 06:16:34;;;;;;;8.70;6.17;;;;;;;3.95;90.96;96094.53;4900690;29;20635;-85
2021/11/28 06:19:19;;;;;;;9.30;6.00;;;;;;;3.95;91.09;96097.13;4904224;29;20650;-85
2021/11/28 06:22:08;;;;;;;6.80;5.40;;;;;;;3.93;90.39;96094.66;4900852;29;23579;-85
2021/11/28 06:24:43;;;;;;;7.77;5.37;;;;;;;3.95;90.80;96097.13;4889702;29;20647;-85
2021/11/28 06:27:19;;;;;;;6.67;4.70;;;;;;;3.94;90.59;96088.56;4902475;29;21722;-84
2021/11/28 06:29:49;;;;;;;8.97;5.10;;;;;;;4.00;90.71;96103.59;4908027;29;20625;-86
2021/11/28 06:32:22;;;;;;;9.17;5.57;;;;;;;4.02;90.97;96098.31;4904258;29;20747;-84
2021/11/28 06:35:27;;;;;;;7.90;5.27;;;;;;;4.01;90.87;96099.25;4897094;29;20651;-86
2021/11/28 06:38:14;;;;;;;7.40;5.47;;;;;;;3.97;91.34;96102.97;4903004;29;20630;-87
2021/11/28 06:41:05;;;;;;;8.40;6.10;;;;;;;3.95;90.42;96103.09;4905996;29;23842;-87
2021/11/28 06:43:33;;;;;;;8.77;6.07;;;;;;;3.94;90.62;96109.19;4890058;29;20639;-86
2021/11/28 06:46:02;;;;;;;7.60;5.17;;;;;;;3.97;90.59;96108.13;4894466;29;20632;-87
2021/11/28 06:48:32;;;;;;;7.50;5.43;;;;;;;3.98;90.40;96105.44;4904814;29;20636;-84
2021/11/28 06:51:20;;;;;;;7.70;5.87;;;;;;;4.01;91.06;96109.56;4907933;29;20641;-84
2021/11/28 06:53:50;;;;;;;9.50;6.00;;;;;;;4.02;90.75;96112.00;4903146;29;20634;-86
2021/11/28 06:56:48;;;;;;;8.23;5.57;;;;;;;4.01;91.34;96120.69;4889125;29;21141;-87
2021/11/28 06:59:16;;;;;;;9.57;5.50;;;;;;;4.02;91.08;96113.78;4901049;29;20654;-87
2021/11/28 07:01:46;;;;;;;7.70;5.47;;;;;;;4.04;91.26;96119.63;4881980;29;20639;-86
2021/11/28 07:04:35;;;;;;;7.10;5.60;;;;;;;4.05;90.50;96121.28;4886376;29;21512;-88
2021/11/28 07:07:23;;;;;;;7.67;5.77;;;;;;;4.07;91.27;96127.16;4900622;29;20717;-87
2021/11/28 07:10:00;;;;;;;7.50;5.30;;;;;;;4.08;91.02;96121.06;4897220;29;20650;-86
2021/11/28 07:12:30;;;;;;;11.50;6.50;;;;;;;4.04;90.61;96130.75;4906383;29;20643;-86
2021/11/28 07:14:58;;;;;;;8.97;6.00;;;;;;;4.06;90.94;96125.50;4886184;29;20639;-86
2021/11/28 07:17:27;;;;;;;8.43;5.43;;;;;;;4.06;90.38;96128.06;4897749;29;20650;-87
2021/11/28 07:19:59;;;;;;;8.43;5.90;;;;;;;4.03;90.86;96118.81;4894170;29;20654;-86
2021/11/28 07:22:39;;;;;;;10.33;6.37;;;;;;;4.06;91.43;96125.50;4892000;29;21241;-87
2021/11/28 07:25:08;;;;;;;8.47;6.57;;;;;;;4.04;90.98;96124.78;4895634;29;20631;-85
2021/11/28 07:27:38;;;;;;;9.03;7.33;;;;;;;3.95;91.12;96118.56;4909758;29;20655;-86
2021/11/28 07:30:08;;;;;;;9.80;6.90;;;;;;;3.92;90.75;96125.69;4894118;29;21235;-86
2021/11/28 07:32:40;;;;;;;9.03;6.50;;;;;;;3.91;91.17;96124.03;4895800;29;20634;-86
2021/11/28 07:35:27;;;;;;;7.60;5.73;;;;;;;3.89;91.01;96131.09;4918267;29;20730;-86
2021/11/28 07:38:18;;;;;;;8.53;5.77;;;;;;;3.89;91.57;96124.19;4890079;29;21014;-86
2021/11/28 07:40:46;;;;;;;8.37;6.40;;;;;;;3.91;91.54;96126.63;4911107;29;20646;-86
2021/11/28 07:43:33;;;;;;;10.47;6.60;;;;;;;3.92;91.34;96121.34;4896343;29;20645;-86
2021/11/28 07:46:30;;;;;;;8.97;6.47;;;;;;;3.95;91.45;96120.31;4893894;29;20635;-87
2021/11/28 07:49:04;;;;;;;10.57;6.60;;;;;;;3.96;91.68;96127.13;4906915;29;20642;-87
2021/11/28 07:51:33;;;;;;;8.53;6.67;;;;;;;4.00;91.67;96131.09;4889872;29;20670;-86
2021/11/28 07:54:06;;;;;;;10.63;6.93;;;;;;;4.04;91.24;96135.09;4917622;29;21162;-87
2021/11/28 07:56:34;;;;;;;11.70;6.30;;;;;;;4.06;92.16;96130.66;4894234;29;20674;-86
2021/11/28 07:59:21;;;;;;;15.23;9.90;;;;;;;4.11;90.79;96131.16;4905965;29;20643;-86
2021/11/28 08:01:50;;;;;;;8.50;6.93;;;;;;;4.14;91.14;96128.34;4891998;29;20650;-87
2021/11/28 08:04:42;;;;;;;9.87;8.43;;;;;;;4.17;91.27;96125.53;4868400;29;20633;-86
2021/11/28 08:07:29;;;;;;;10.90;8.03;;;;;;;4.18;90.95;96138.31;4900932;29;20671;-86
2021/11/28 08:10:05;;;;;;;9.30;7.37;;;;;;;4.19;91.76;96132.19;4899156;29;20647;-89
2021/11/28 08:12:33;;;;;;;9.80;7.67;;;;;;;4.21;91.00;96128.59;4914818;29;20742;-86
2021/11/28 08:15:02;;;;;;;9.00;6.03;;;;;;;4.18;90.40;96127.16;4919338;29;21530;-86
2021/11/28 08:17:31;;;;;;;8.37;6.40;;;;;;;4.14;91.14;96131.72;4890833;29;20633;-87
2021/11/28 08:20:01;;;;;;;10.00;6.93;;;;;;;4.13;90.66;96122.34;4885279;29;20701;-86
2021/11/28 08:22:29;;;;;;;10.00;7.63;;;;;;;4.12;90.05;96127.63;4891829;29;20637;-87
2021/11/28 08:24:57;;;;;;;10.30;7.63;;;;;;;4.12;91.09;96133.63;4903087;29;20676;-86
2021/11/28 08:27:26;;;;;;;11.33;7.77;;;;;;;4.14;91.51;96136.06;4905236;29;20657;-86
2021/11/28 08:29:57;;;;;;;9.33;6.90;;;;;;;4.15;91.37;96135.13;4897595;29;21055;-84
2021/11/28 08:32:48;;;;;;;10.73;7.50;;;;;;;4.21;91.19;96136.31;4900445;29;20638;-86
2021/11/28 08:35:35;;;;;;;12.00;8.17;;;;;;;4.24;92.21;96138.66;4922371;29;20623;-86
2021/11/28 08:38:04;;;;;;;9.10;7.90;;;;;;;4.26;91.52;96141.94;4894084;29;20643;-89
2021/11/28 08:40:33;;;;;;;11.70;7.97;;;;;;;4.28;90.70;96142.69;4910760;29;20996;-86
2021/11/28 08:43:02;;;;;;;10.67;8.07;;;;;;;4.29;91.27;96152.03;4902920;29;21382;-85
2021/11/28 08:45:31;;;;;;;11.90;8.67;;;;;;;4.30;92.22;96153.69;4902263;29;20635;-84
2021/11/28 08:48:00;;;;;;;10.60;7.80;;;;;;;4.33;91.21;96162.94;4892313;29;21135;-84
2021/11/28 08:50:29;;;;;;;10.20;7.63;;;;;;;4.35;91.00;96164.47;4892478;29;20645;-84
2021/11/28 08:52:57;;;;;;;11.13;8.10;;;;;;;4.38;91.27;96171.97;4904463;29;20638;-83
2021/11/28 08:55:25;;;;;;;9.97;7.30;;;;;;;4.40;92.03;96167.53;4906943;29;20733;-83
2021/11/28 08:57:53;;;;;;;9.57;7.30;;;;;;;4.43;91.34;96169.06;4919416;29;20649;-87
2021/11/28 09:00:23;;;;;;;9.90;7.23;;;;;;;4.45;91.33;96169.75;4905126;29;20637;-86
2021/11/28 09:02:52;;;;;;;11.50;8.07;;;;;;;4.45;91.55;96170.59;4908753;29;21215;-84
2021/11/28 09:05:21;;;;;;;8.80;7.90;;;;;;;4.44;90.86;96175.88;4892174;29;20633;-84
2021/11/28 09:07:50;;;;;;;45.80;23.70;;;;;;;4.45;91.64;96177.50;4892263;29;20646;-86
2021/11/28 09:10:19;;;;;;;18.70;11.00;;;;;;;4.48;90.47;96178.13;4906853;29;20646;-87
2021/11/28 09:12:48;;;;;;;11.83;8.80;;;;;;;4.51;90.73;96175.31;4911081;29;21201;-86
2021/11/28 09:15:18;;;;;;;11.00;7.97;;;;;;;4.56;89.96;96172.38;4894622;29;20656;-87
2021/11/28 09:17:51;;;;;;;13.10;9.20;;;;;;;4.53;90.89;96176.00;4899011;29;20657;-86
2021/11/28 09:20:22;;;;;;;15.27;12.27;;;;;;;4.52;90.33;96179.50;4896487;29;20638;-85
2021/11/28 09:25:37;;;;;;;9.00;7.60;;;;;;;4.54;90.71;96182.81;4867349;29;21306;-85
2021/11/28 09:28:06;;;;;;;8.77;6.77;;;;;;;4.52;90.37;96184.66;4898335;29;20706;-87
2021/11/28 09:30:35;;;;;;;9.93;7.40;;;;;;;4.46;90.45;96185.13;4904798;29;20696;-86
2021/11/28 09:33:06;;;;;;;9.50;7.60;;;;;;;4.49;90.66;96190.06;4927022;29;20648;-84
2021/11/28 09:35:35;;;;;;;8.13;7.33;;;;;;;4.48;90.76;96187.59;4908147;29;20687;-85
2021/11/28 09:38:04;;;;;;;11.33;8.30;;;;;;;4.51;91.03;96187.38;4911388;29;21252;-84
2021/11/28 09:40:32;;;;;;;11.97;8.80;;;;;;;4.54;91.22;96193.13;4920338;29;21246;-84
2021/11/28 09:43:01;;;;;;;12.07;9.00;;;;;;;4.58;90.73;96188.56;4908667;29;20629;-84
2021/11/28 09:45:30;;;;;;;10.63;7.70;;;;;;;4.61;89.91;96189.13;4915289;29;20686;-84
2021/11/28 09:47:58;;;;;;;10.90;7.97;;;;;;;4.62;90.46;96174.50;4899298;29;20662;-84
2021/11/28 09:50:28;;;;;;;10.70;8.80;;;;;;;4.65;90.29;96182.81;4896077;29;20628;-84
2021/11/28 09:52:57;;;;;;;10.50;7.70;;;;;;;4.66;89.91;96174.16;4905201;29;20646;-84
2021/11/28 09:55:27;;;;;;;9.00;7.30;;;;;;;4.70;90.64;96175.53;4900708;29;21713;-83
2021/11/28 09:57:57;;;;;;;11.90;8.80;;;;;;;4.72;90.12;96176.22;4902884;29;20634;-83
2021/11/28 10:00:26;;;;;;;8.30;7.40;;;;;;;4.70;90.02;96178.13;4920313;29;21198;-84
2021/11/28 10:02:54;;;;;;;10.20;8.17;;;;;;;4.66;89.70;96174.16;4903956;29;20701;-84
2021/11/28 10:05:23;;;;;;;12.17;7.80;;;;;;;4.68;89.87;96172.25;4897352;29;20664;-84
2021/11/28 10:07:52;;;;;;;10.23;7.10;;;;;;;4.67;90.92;96168.03;4918354;29;21194;-84
2021/11/28 10:10:21;;;;;;;11.63;8.73;;;;;;;4.70;91.23;96163.44;4896995;29;20637;-84
2021/11/28 10:12:51;;;;;;;11.53;8.93;;;;;;;4.73;90.49;96159.81;4904176;29;20639;-84
2021/11/28 10:15:22;;;;;;;9.57;7.80;;;;;;;4.76;91.08;96168.13;4918674;29;20638;-84
2021/11/28 10:17:50;;;;;;;9.23;7.53;;;;;;;4.82;91.48;96151.38;4894433;29;21201;-83
2021/11/28 10:20:22;;;;;;;11.43;8.77;;;;;;;4.88;90.74;96162.03;4899491;29;20642;-83
2021/11/28 10:22:52;;;;;;;15.40;11.37;;;;;;;4.87;90.66;96155.25;4905778;29;20737;-83
2021/11/28 10:25:24;;;;;;;9.20;8.23;;;;;;;4.83;90.20;96147.84;4903398;29;21075;-83
2021/11/28 10:27:54;;;;;;;9.17;7.27;;;;;;;4.85;89.89;96151.13;4906134;29;20654;-83
2021/11/28 10:30:35;;;;;;;8.97;7.23;;;;;;;4.90;90.48;96143.84;4889460;29;21201;-87
2021/11/28 10:33:09;;;;;;;9.10;7.30;;;;;;;4.95;90.12;96146.91;4897048;29;20634;-87
2021/11/28 10:35:38;;;;;;;8.80;6.50;;;;;;;4.95;89.39;96147.72;4894279;29;20742;-85
2021/11/28 10:38:14;;;;;;;10.93;7.30;;;;;;;4.96;90.08;96138.22;4899557;29;20643;-86
2021/11/28 10:40:44;;;;;;;7.37;5.70;;;;;;;5.04;89.63;96141.03;4900795;29;20730;-85
2021/11/28 10:43:15;;;;;;;7.60;5.60;;;;;;;5.07;89.42;96146.78;4888808;29;20635;-85
2021/11/28 10:45:47;;;;;;;9.97;6.63;;;;;;;5.13;89.00;96147.09;4886067;29;20866;-86
2021/11/28 10:48:16;;;;;;;7.47;6.57;;;;;;;5.20;89.83;96135.38;4906572;29;21195;-86
2021/11/28 10:50:47;;;;;;;9.30;7.47;;;;;;;5.25;89.73;96140.97;4915116;29;20661;-85
2021/11/28 10:53:19;;;;;;;23.80;17.20;;;;;;;5.29;90.19;96142.41;4893148;29;20630;-86
2021/11/28 10:55:50;;;;;;;17.27;12.37;;;;;;;5.33;90.54;96141.19;4906465;29;20667;-86
2021/11/28 10:58:20;;;;;;;10.87;7.20;;;;;;;5.35;90.56;96144.50;4905360;29;20642;-86
2021/11/28 11:01:06;;;;;;;8.40;7.20;;;;;;;5.40;90.28;96141.56;4923921;29;20649;-86
2021/11/28 11:03:37;;;;;;;8.93;7.47;;;;;;;5.42;90.24;96142.25;4901465;29;20642;-86
2021/11/28 11:06:17;;;;;;;10.23;7.33;;;;;;;5.42;90.40;96139.66;4899399;29;20657;-86
2021/11/28 11:08:48;;;;;;;9.17;6.90;;;;;;;5.44;90.19;96145.50;4902393;29;21213;-86
2021/11/28 11:11:17;;;;;;;9.03;7.57;;;;;;;5.43;90.46;96149.06;4896226;29;20646;-86
2021/11/28 11:13:57;;;;;;;12.83;10.00;;;;;;;5.39;89.78;96139.91;4903921;29;20707;-86
2021/11/28 11:16:33;;;;;;;15.60;12.30;;;;;;;5.40;90.37;96134.59;4892662;29;20623;-86
2021/11/28 11:19:24;;;;;;;15.90;11.70;;;;;;;5.40;90.20;96142.34;4881811;29;20642;-86
2021/11/28 11:22:03;;;;;;;13.40;11.00;;;;;;;5.40;90.11;96137.19;4890499;29;21010;-85
2021/11/28 11:24:34;;;;;;;15.27;10.90;;;;;;;5.40;90.23;96139.78;4890075;29;20635;-84
2021/11/28 11:27:11;;;;;;;14.50;12.27;;;;;;;5.40;90.02;96142.34;4914392;29;20638;-86
2021/11/28 11:29:39;;;;;;;11.53;9.67;;;;;;;5.43;90.05;96139.53;4886052;29;20757;-85
2021/11/28 11:32:12;;;;;;;11.80;9.23;;;;;;;5.44;90.14;96148.94;4905050;29;20707;-86
2021/11/28 11:34:41;;;;;;;10.30;8.07;;;;;;;5.44;90.04;96148.94;4889496;29;20650;-85
2021/11/28 11:37:13;;;;;;;10.93;7.97;;;;;;;5.49;89.40;96139.03;4898608;29;20726;-85
2021/11/28 11:39:45;;;;;;;9.27;7.33;;;;;;;5.53;88.96;96140.44;4917507;29;20674;-85
2021/11/28 11:42:16;;;;;;;12.30;7.50;;;;;;;5.56;89.48;96145.34;4905922;29;20634;-85
2021/11/28 11:44:44;;;;;;;9.53;7.60;;;;;;;5.59;89.51;96147.69;4917963;29;20653;-86
2021/11/28 11:47:17;;;;;;;9.67;6.90;;;;;;;5.61;89.12;96146.63;4884933;29;20654;-84
2021/11/28 11:49:46;;;;;;;8.73;6.33;;;;;;;5.62;88.58;96150.03;4917995;29;20762;-85
2021/11/28 11:52:15;;;;;;;10.93;6.83;;;;;;;5.64;88.93;96146.41;4902254;29;20639;-85
2021/11/28 11:54:46;;;;;;;11.03;7.07;;;;;;;5.65;88.66;96148.03;4900400;29;20688;-85
2021/11/28 11:57:18;;;;;;;11.60;6.90;;;;;;;5.72;89.35;96145.78;4888093;29;20641;-85
2021/11/28 12:00:13;;;;;;;7.77;6.97;;;;;;;5.78;88.57;96142.72;4908150;29;21206;-85